createdAt,value
2023-12-08T00:00:55.486Z,92662.00
2023-12-08T00:01:55.542Z,92654.00
2023-12-08T00:02:55.632Z,92659.00
2023-12-08T00:03:55.630Z,92664.00
2023-12-08T00:04:55.707Z,92660.00
2023-12-08T00:05:55.780Z,92652.00
2023-12-08T00:06:55.728Z,92649.00
2023-12-08T00:07:55.765Z,92647.00
2023-12-08T00:08:55.779Z,92642.00
2023-12-08T00:09:55.816Z,92639.00
2023-12-08T00:10:55.843Z,92634.00
2023-12-08T00:11:55.908Z,92635.00
2023-12-08T00:12:55.866Z,92627.00
2023-12-08T00:13:55.850Z,92632.00
2023-12-08T00:14:55.846Z,92629.00
2023-12-08T00:15:55.848Z,92622.00
2023-12-08T00:16:55.940Z,92621.00
2023-12-08T00:17:55.938Z,92618.00
2023-12-08T00:18:56.009Z,92614.00
2023-12-08T00:19:56.044Z,92618.00
2023-12-08T00:20:56.131Z,92625.00
2023-12-08T00:21:56.159Z,92613.00
2023-12-08T00:22:56.244Z,92609.00
2023-12-08T00:23:56.424Z,92603.00
2023-12-08T00:24:56.485Z,92599.00
2023-12-08T00:25:56.600Z,92603.00
2023-12-08T00:26:56.703Z,92598.00
2023-12-08T00:27:56.838Z,92600.00
2023-12-08T00:28:57.101Z,92607.00
2023-12-08T00:29:57.435Z,92606.00
2023-12-08T00:30:57.647Z,92613.00
2023-12-08T00:31:57.874Z,92614.00
2023-12-08T00:32:58.293Z,92616.00
2023-12-08T00:33:58.452Z,92609.00
2023-12-08T00:34:58.614Z,92609.00
2023-12-08T00:35:58.924Z,92617.00
2023-12-08T00:36:59.261Z,92615.00
2023-12-08T00:37:59.439Z,92619.00
2023-12-08T00:38:59.855Z,92618.00
2023-12-08T00:39:59.970Z,92621.00
2023-12-08T00:41:00.264Z,92620.00
2023-12-08T00:42:00.541Z,92610.00
2023-12-08T00:43:00.721Z,92618.00
2023-12-08T00:44:00.946Z,92605.00
2023-12-08T00:45:01.202Z,92610.00
2023-12-08T00:46:01.539Z,92606.00
2023-12-08T00:47:01.773Z,92611.00
2023-12-08T00:48:02.237Z,92611.00
2023-12-08T00:49:02.397Z,92606.00
2023-12-08T00:50:02.563Z,92603.00
2023-12-08T00:51:02.839Z,92601.00
2023-12-08T00:52:02.987Z,92600.00
2023-12-08T00:53:03.404Z,92597.00
2023-12-08T00:54:03.654Z,92597.00
2023-12-08T00:55:03.861Z,92596.00
2023-12-08T00:56:04.044Z,92598.00
2023-12-08T00:57:04.391Z,92594.00
2023-12-08T00:58:04.664Z,92594.00
2023-12-08T00:59:04.818Z,92600.00
2023-12-08T01:00:05.230Z,92596.00
2023-12-08T01:01:05.493Z,92590.00
2023-12-08T01:02:05.610Z,92590.00
2023-12-08T01:03:05.980Z,92596.00
2023-12-08T01:04:06.209Z,92597.00
2023-12-08T01:05:06.319Z,92591.00
2023-12-08T01:06:06.704Z,92589.00
2023-12-08T01:07:06.899Z,92587.00
2023-12-08T01:08:07.096Z,92590.00
2023-12-08T01:09:07.435Z,92584.00
2023-12-08T01:10:07.609Z,92586.00
2023-12-08T01:11:07.930Z,92574.00
2023-12-08T01:12:08.280Z,92569.00
2023-12-08T01:13:08.417Z,92576.00
2023-12-08T01:14:08.629Z,92573.00
2023-12-08T01:15:09.081Z,92566.00
2023-12-08T01:16:09.217Z,92556.00
2023-12-08T01:17:09.517Z,92564.00
2023-12-08T01:18:09.794Z,92563.00
2023-12-08T01:19:10.035Z,92562.00
2023-12-08T01:20:10.259Z,92551.00
2023-12-08T01:21:10.549Z,92561.00
2023-12-08T01:22:10.782Z,92551.00
2023-12-08T01:23:11.025Z,92555.00
2023-12-08T01:24:11.421Z,92553.00
2023-12-08T01:25:11.542Z,92554.00
2023-12-08T01:26:11.776Z,92546.00
2023-12-08T01:27:12.191Z,92551.00
2023-12-08T01:28:12.509Z,92552.00
2023-12-08T01:29:12.523Z,92552.00
2023-12-08T01:30:12.830Z,92556.00
2023-12-08T01:31:13.006Z,92560.00
2023-12-08T01:32:13.315Z,92558.00
2023-12-08T01:33:13.692Z,92559.00
2023-12-08T01:34:14.066Z,92562.00
2023-12-08T01:35:14.066Z,92558.00
2023-12-08T01:36:39.121Z,92556.00
2023-12-08T01:37:15.302Z,92550.00
2023-12-08T01:38:14.360Z,92548.00
2023-12-08T01:39:14.414Z,92550.00
2023-12-08T01:40:15.280Z,92546.00
2023-12-08T01:41:14.413Z,92550.00
2023-12-08T01:42:14.463Z,92545.00
2023-12-08T01:43:14.510Z,92546.00
2023-12-08T01:44:14.529Z,92542.00
2023-12-08T01:45:14.632Z,92538.00
2023-12-08T01:46:14.613Z,92534.00
2023-12-08T01:47:14.627Z,92534.00
2023-12-08T01:48:14.766Z,92536.00
2023-12-08T01:49:14.830Z,92537.00
2023-12-08T01:50:14.797Z,92539.00
2023-12-08T01:51:14.887Z,92533.00
2023-12-08T01:52:14.898Z,92537.00
2023-12-08T01:53:14.990Z,92545.00
2023-12-08T01:54:15.100Z,92542.00
2023-12-08T01:55:15.171Z,92538.00
2023-12-08T01:56:15.217Z,92534.00
2023-12-08T01:57:15.344Z,92540.00
2023-12-08T01:58:15.420Z,92535.00
2023-12-08T01:59:15.517Z,92532.00
2023-12-08T02:00:15.600Z,92530.00
2023-12-08T02:01:15.686Z,92525.00
2023-12-08T02:02:15.626Z,92523.00
2023-12-08T02:03:15.762Z,92516.00
2023-12-08T02:04:15.867Z,92521.00
2023-12-08T02:05:15.808Z,92518.00
2023-12-08T02:06:15.925Z,92520.00
2023-12-08T02:07:15.941Z,92520.00
2023-12-08T02:08:15.982Z,92515.00
2023-12-08T02:09:16.102Z,92516.00
2023-12-08T02:10:16.137Z,92514.00
2023-12-08T02:11:18.085Z,92513.00
2023-12-08T02:12:16.172Z,92508.00
2023-12-08T02:13:16.206Z,92514.00
2023-12-08T02:14:16.279Z,92514.00
2023-12-08T02:15:16.470Z,92513.00
2023-12-08T02:16:16.412Z,92509.00
2023-12-08T02:17:16.472Z,92512.00
2023-12-08T02:18:16.640Z,92515.00
2023-12-08T02:19:16.728Z,92512.00
2023-12-08T02:20:16.685Z,92511.00
2023-12-08T02:21:16.844Z,92510.00
2023-12-08T02:22:16.830Z,92508.00
2023-12-08T02:23:16.847Z,92507.00
2023-12-08T02:24:16.869Z,92510.00
2023-12-08T02:25:16.867Z,92515.00
2023-12-08T02:26:16.924Z,92512.00
2023-12-08T02:27:17.034Z,92514.00
2023-12-08T02:28:17.078Z,92509.00
2023-12-08T02:29:17.115Z,92512.00
2023-12-08T02:30:17.270Z,92512.00
2023-12-08T02:31:17.250Z,92510.00
2023-12-08T02:32:17.350Z,92507.00
2023-12-08T02:33:17.491Z,92502.00
2023-12-08T02:34:17.470Z,92499.00
2023-12-08T02:35:17.360Z,92497.00
2023-12-08T02:36:17.532Z,92494.00
2023-12-08T02:37:17.397Z,92495.00
2023-12-08T02:38:17.386Z,92495.00
2023-12-08T02:39:17.444Z,92495.00
2023-12-08T02:40:17.409Z,92496.00
2023-12-08T02:41:17.398Z,92492.00
2023-12-08T02:42:17.469Z,92494.00
2023-12-08T02:43:17.419Z,92492.00
2023-12-08T02:44:17.433Z,92495.00
2023-12-08T02:45:17.492Z,92496.00
2023-12-08T02:46:17.478Z,92494.00
2023-12-08T02:47:17.477Z,92494.00
2023-12-08T02:48:17.593Z,92493.00
2023-12-08T02:49:17.569Z,92501.00
2023-12-08T02:50:17.480Z,92492.00
2023-12-08T02:51:17.542Z,92490.00
2023-12-08T02:52:17.541Z,92491.00
2023-12-08T02:53:17.566Z,92486.00
2023-12-08T02:54:17.685Z,92485.00
2023-12-08T02:55:17.590Z,92490.00
2023-12-08T02:56:17.600Z,92490.00
2023-12-08T02:57:17.681Z,92491.00
2023-12-08T02:58:17.659Z,92486.00
2023-12-08T02:59:17.677Z,92492.00
2023-12-08T03:00:17.722Z,92492.00
2023-12-08T03:01:17.707Z,92493.00
2023-12-08T03:02:17.688Z,92490.00
2023-12-08T03:03:17.750Z,92481.00
2023-12-08T03:04:17.796Z,92485.00
2023-12-08T03:05:17.871Z,92477.00
2023-12-08T03:06:17.921Z,92474.00
2023-12-08T03:07:17.952Z,92469.00
2023-12-08T03:08:17.965Z,92462.00
2023-12-08T03:09:18.038Z,92460.00
2023-12-08T03:10:18.030Z,92460.00
2023-12-08T03:11:18.086Z,92459.00
2023-12-08T03:12:18.105Z,92460.00
2023-12-08T03:13:18.115Z,92456.00
2023-12-08T03:14:18.173Z,92451.00
2023-12-08T03:15:18.268Z,92458.00
2023-12-08T03:16:18.278Z,92460.00
2023-12-08T03:17:18.361Z,92454.00
2023-12-08T03:18:18.389Z,92462.00
2023-12-08T03:19:18.391Z,92454.00
2023-12-08T03:20:18.378Z,92459.00
2023-12-08T03:21:18.586Z,92463.00
2023-12-08T03:22:18.764Z,92462.00
2023-12-08T03:23:18.953Z,92456.00
2023-12-08T03:24:19.275Z,92450.00
2023-12-08T03:25:19.447Z,92451.00
2023-12-08T03:26:19.647Z,92448.00
2023-12-08T03:27:19.914Z,92442.00
2023-12-08T03:28:20.177Z,92443.00
2023-12-08T03:29:20.337Z,92438.00
2023-12-08T03:30:20.634Z,92436.00
2023-12-08T03:31:20.794Z,92428.00
2023-12-08T03:32:21.027Z,92434.00
2023-12-08T03:33:21.385Z,92428.00
2023-12-08T03:34:21.629Z,92421.00
2023-12-08T03:35:21.787Z,92424.00
2023-12-08T03:36:21.881Z,92425.00
2023-12-08T03:37:22.054Z,92420.00
2023-12-08T03:38:22.349Z,92415.00
2023-12-08T03:39:22.536Z,92417.00
2023-12-08T03:40:22.712Z,92404.00
2023-12-08T03:41:22.881Z,92413.00
2023-12-08T03:42:23.169Z,92406.00
2023-12-08T03:43:23.368Z,92415.00
2023-12-08T03:44:23.636Z,92412.00
2023-12-08T03:45:23.749Z,92413.00
2023-12-08T03:46:24.000Z,92409.00
2023-12-08T03:47:24.437Z,92417.00
2023-12-08T03:48:24.296Z,92408.00
2023-12-08T03:49:24.379Z,92409.00
2023-12-08T03:50:24.206Z,92416.00
2023-12-08T03:51:24.197Z,92417.00
2023-12-08T03:52:24.215Z,92419.00
2023-12-08T03:53:24.187Z,92420.00
2023-12-08T03:54:24.187Z,92408.00
2023-12-08T03:55:24.158Z,92405.00
2023-12-08T03:56:24.199Z,92408.00
2023-12-08T03:57:24.799Z,92402.00
2023-12-08T03:58:24.446Z,92401.00
2023-12-08T03:59:24.470Z,92403.00
2023-12-08T04:00:24.423Z,92394.00
2023-12-08T04:01:24.426Z,92388.00
2023-12-08T04:02:24.658Z,92389.00
2023-12-08T04:03:24.913Z,92384.00
2023-12-08T04:04:27.156Z,92373.00
2023-12-08T04:05:25.090Z,92374.00
2023-12-08T04:06:25.004Z,92372.00
2023-12-08T04:07:25.098Z,92377.00
2023-12-08T04:08:24.874Z,92363.00
2023-12-08T04:09:26.775Z,92356.00
2023-12-08T04:10:24.769Z,92368.00
2023-12-08T04:11:24.717Z,92371.00
2023-12-08T04:12:24.659Z,92372.00
2023-12-08T04:13:24.629Z,92364.00
2023-12-08T04:14:24.539Z,92369.00
2023-12-08T04:15:24.478Z,92374.00
2023-12-08T04:16:24.419Z,92374.00
2023-12-08T04:17:24.762Z,92379.00
2023-12-08T04:18:24.407Z,92366.00
2023-12-08T04:19:24.358Z,92365.00
2023-12-08T04:20:24.166Z,92359.00
2023-12-08T04:21:24.081Z,92359.00
2023-12-08T04:22:24.011Z,92360.00
2023-12-08T04:23:23.944Z,92355.00
2023-12-08T04:24:23.894Z,92359.00
2023-12-08T04:25:23.813Z,92362.00
2023-12-08T04:26:23.745Z,92357.00
2023-12-08T04:27:23.925Z,92365.00
2023-12-08T04:28:23.628Z,92363.00
2023-12-08T04:29:23.575Z,92365.00
2023-12-08T04:30:23.590Z,92371.00
2023-12-08T04:31:23.462Z,92372.00
2023-12-08T04:32:23.432Z,92372.00
2023-12-08T04:33:23.824Z,92373.00
2023-12-08T04:34:23.983Z,92384.00
2023-12-08T04:35:24.070Z,92381.00
2023-12-08T04:36:24.298Z,92379.00
2023-12-08T04:37:24.880Z,92379.00
2023-12-08T04:38:24.738Z,92380.00
2023-12-08T04:39:24.969Z,92383.00
2023-12-08T04:40:25.234Z,92384.00
2023-12-08T04:41:25.460Z,92386.00
2023-12-08T04:42:25.629Z,92383.00
2023-12-08T04:43:25.873Z,92386.00
2023-12-08T04:44:26.152Z,92391.00
2023-12-08T04:45:26.478Z,92396.00
2023-12-08T04:46:26.583Z,92396.00
2023-12-08T04:47:27.070Z,92393.00
2023-12-08T04:48:27.112Z,92391.00
2023-12-08T04:49:35.531Z,92393.00
2023-12-08T04:50:34.691Z,92393.00
2023-12-08T04:51:34.630Z,92392.00
2023-12-08T04:52:34.622Z,92391.00
2023-12-08T04:53:34.690Z,92388.00
2023-12-08T04:54:34.625Z,92391.00
2023-12-08T04:55:34.615Z,92386.00
2023-12-08T04:56:34.640Z,92386.00
2023-12-08T04:57:34.711Z,92387.00
2023-12-08T04:58:34.601Z,92382.00
2023-12-08T04:59:34.657Z,92388.00
2023-12-08T05:00:34.590Z,92391.00
2023-12-08T05:01:34.765Z,92392.00
2023-12-08T05:02:34.988Z,92390.00
2023-12-08T05:03:35.158Z,92388.00
2023-12-08T05:04:35.434Z,92385.00
2023-12-08T05:05:35.721Z,92387.00
2023-12-08T05:06:36.048Z,92391.00
2023-12-08T05:07:36.069Z,92391.00
2023-12-08T05:08:36.318Z,92384.00
2023-12-08T05:09:36.553Z,92380.00
2023-12-08T05:10:36.763Z,92376.00
2023-12-08T05:11:37.036Z,92376.00
2023-12-08T05:12:37.185Z,92383.00
2023-12-08T05:13:37.434Z,92376.00
2023-12-08T05:14:37.735Z,92378.00
2023-12-08T05:15:37.812Z,92378.00
2023-12-08T05:16:38.121Z,92373.00
2023-12-08T05:17:38.402Z,92370.00
2023-12-08T05:18:38.545Z,92372.00
2023-12-08T05:19:38.816Z,92369.00
2023-12-08T05:20:39.019Z,92371.00
2023-12-08T05:21:39.235Z,92371.00
2023-12-08T05:22:39.429Z,92369.00
2023-12-08T05:23:39.688Z,92391.00
2023-12-08T05:24:39.871Z,92380.00
2023-12-08T05:25:40.133Z,92380.00
2023-12-08T05:26:40.363Z,92359.00
2023-12-08T05:27:40.588Z,92361.00
2023-12-08T05:28:40.842Z,92355.00
2023-12-08T05:29:41.041Z,92348.00
2023-12-08T05:30:41.276Z,92347.00
2023-12-08T05:31:41.453Z,92351.00
2023-12-08T05:32:41.805Z,92346.00
2023-12-08T05:33:42.030Z,92350.00
2023-12-08T05:34:42.166Z,92362.00
2023-12-08T05:35:42.334Z,92360.00
2023-12-08T05:36:42.529Z,92360.00
2023-12-08T05:37:42.821Z,92368.00
2023-12-08T05:38:43.120Z,92354.00
2023-12-08T05:39:43.193Z,92362.00
2023-12-08T05:40:43.503Z,92362.00
2023-12-08T05:41:43.709Z,92354.00
2023-12-08T05:42:43.901Z,92357.00
2023-12-08T05:43:44.108Z,92360.00
2023-12-08T05:44:44.335Z,92363.00
2023-12-08T05:45:44.612Z,92361.00
2023-12-08T05:46:44.793Z,92370.00
2023-12-08T05:47:45.151Z,92365.00
2023-12-08T05:48:45.363Z,92367.00
2023-12-08T05:49:45.600Z,92361.00
2023-12-08T05:50:46.994Z,92354.00
2023-12-08T05:51:45.611Z,92355.00
2023-12-08T05:52:45.595Z,92355.00
2023-12-08T05:53:45.532Z,92358.00
2023-12-08T05:54:45.535Z,92364.00
2023-12-08T05:55:45.596Z,92351.00
2023-12-08T05:56:45.671Z,92362.00
2023-12-08T05:57:45.711Z,92363.00
2023-12-08T05:58:45.718Z,92360.00
2023-12-08T05:59:45.641Z,92362.00
2023-12-08T06:00:45.651Z,92366.00
2023-12-08T06:01:45.720Z,92368.00
2023-12-08T06:02:45.768Z,92363.00
2023-12-08T06:03:45.721Z,92355.00
2023-12-08T06:04:45.896Z,92358.00
2023-12-08T06:05:46.187Z,92368.00
2023-12-08T06:06:46.405Z,92355.00
2023-12-08T06:07:46.588Z,92345.00
2023-12-08T06:08:46.800Z,92334.00
2023-12-08T06:09:47.020Z,92333.00
2023-12-08T06:10:47.158Z,92333.00
2023-12-08T06:11:47.656Z,92332.00
2023-12-08T06:12:47.689Z,92333.00
2023-12-08T06:13:47.807Z,92332.00
2023-12-08T06:14:48.069Z,92328.00
2023-12-08T06:15:48.204Z,92329.00
2023-12-08T06:16:48.422Z,92340.00
2023-12-08T06:17:48.771Z,92345.00
2023-12-08T06:18:49.076Z,92333.00
2023-12-08T06:19:49.074Z,92335.00
2023-12-08T06:20:49.409Z,92333.00
2023-12-08T06:21:49.466Z,92344.00
2023-12-08T06:22:49.708Z,92348.00
2023-12-08T06:23:50.060Z,92335.00
2023-12-08T06:24:50.124Z,92340.00
2023-12-08T06:25:50.339Z,92341.00
2023-12-08T06:26:50.638Z,92344.00
2023-12-08T06:27:50.832Z,92346.00
2023-12-08T06:28:51.043Z,92343.00
2023-12-08T06:29:51.351Z,92340.00
2023-12-08T06:30:51.527Z,92341.00
2023-12-08T06:31:51.808Z,92338.00
2023-12-08T06:32:52.085Z,92342.00
2023-12-08T06:34:05.038Z,92338.00
2023-12-08T06:34:53.275Z,92350.00
2023-12-08T06:35:52.238Z,92349.00
2023-12-08T06:36:52.194Z,92354.00
2023-12-08T06:37:52.185Z,92352.00
2023-12-08T06:38:52.203Z,92345.00
2023-12-08T06:39:52.166Z,92346.00
2023-12-08T06:40:52.162Z,92345.00
2023-12-08T06:41:52.128Z,92348.00
2023-12-08T06:42:52.046Z,92338.00
2023-12-08T06:43:51.993Z,92343.00
2023-12-08T06:44:51.997Z,92353.00
2023-12-08T06:45:51.916Z,92351.00
2023-12-08T06:46:51.898Z,92343.00
2023-12-08T06:47:51.964Z,92346.00
2023-12-08T06:48:52.000Z,92342.00
2023-12-08T06:49:52.075Z,92343.00
2023-12-08T06:50:52.182Z,92342.00
2023-12-08T06:51:52.431Z,92343.00
2023-12-08T06:52:52.739Z,92347.00
2023-12-08T06:53:54.144Z,92352.00
2023-12-08T06:54:52.812Z,92353.00
2023-12-08T06:55:52.833Z,92351.00
2023-12-08T06:56:52.894Z,92353.00
2023-12-08T06:57:52.849Z,92359.00
2023-12-08T06:58:53.604Z,92351.00
2023-12-08T06:59:53.071Z,92350.00
2023-12-08T07:00:53.076Z,92349.00
2023-12-08T07:01:53.081Z,92354.00
2023-12-08T07:02:53.082Z,92353.00
2023-12-08T07:03:53.272Z,92351.00
2023-12-08T07:04:53.238Z,92353.00
2023-12-08T07:05:53.330Z,92352.00
2023-12-08T07:06:53.273Z,92348.00
2023-12-08T07:07:53.289Z,92348.00
2023-12-08T07:08:53.447Z,92348.00
2023-12-08T07:09:53.581Z,92346.00
2023-12-08T07:10:53.748Z,92346.00
2023-12-08T07:11:54.462Z,92353.00
2023-12-08T07:12:54.032Z,92356.00
2023-12-08T07:13:54.065Z,92355.00
2023-12-08T07:14:54.305Z,92360.00
2023-12-08T07:15:54.189Z,92355.00
2023-12-08T07:16:54.278Z,92354.00
2023-12-08T07:17:54.395Z,92355.00
2023-12-08T07:18:56.000Z,92353.00
2023-12-08T07:19:54.520Z,92357.00
2023-12-08T07:20:54.331Z,92356.00
2023-12-08T07:21:54.270Z,92354.00
2023-12-08T07:22:54.232Z,92355.00
2023-12-08T07:23:54.238Z,92353.00
2023-12-08T07:24:54.184Z,92357.00
2023-12-08T07:25:54.149Z,92346.00
2023-12-08T07:26:54.122Z,92360.00
2023-12-08T07:27:54.067Z,92355.00
2023-12-08T07:28:54.016Z,92358.00
2023-12-08T07:29:54.011Z,92367.00
2023-12-08T07:30:53.949Z,92365.00
2023-12-08T07:31:53.906Z,92362.00
2023-12-08T07:32:54.031Z,92360.00
2023-12-08T07:33:53.976Z,92362.00
2023-12-08T07:34:53.959Z,92360.00
2023-12-08T07:35:54.088Z,92363.00
2023-12-08T07:36:54.308Z,92365.00
2023-12-08T07:37:54.574Z,92368.00
2023-12-08T07:38:54.806Z,92360.00
2023-12-08T07:39:55.030Z,92356.00
2023-12-08T07:40:55.246Z,92348.00
2023-12-08T07:41:55.490Z,92355.00
2023-12-08T07:42:55.691Z,92357.00
2023-12-08T07:43:56.127Z,92359.00
2023-12-08T07:44:56.282Z,92352.00
2023-12-08T07:45:56.389Z,92354.00
2023-12-08T07:46:56.628Z,92359.00
2023-12-08T07:47:56.991Z,92362.00
2023-12-08T07:48:57.196Z,92360.00
2023-12-08T07:49:57.413Z,92363.00
2023-12-08T07:50:57.624Z,92368.00
2023-12-08T07:51:57.910Z,92364.00
2023-12-08T07:52:58.059Z,92363.00
2023-12-08T07:54:00.077Z,92360.00
2023-12-08T07:54:58.368Z,92370.00
2023-12-08T07:55:58.273Z,92364.00
2023-12-08T07:56:58.506Z,92363.00
2023-12-08T07:57:58.183Z,92359.00
2023-12-08T07:58:58.142Z,92358.00
2023-12-08T07:59:58.115Z,92355.00
2023-12-08T08:00:58.036Z,92361.00
2023-12-08T08:01:57.969Z,92355.00
2023-12-08T08:02:57.976Z,92356.00
2023-12-08T08:03:58.643Z,92365.00
2023-12-08T08:04:57.772Z,92359.00
2023-12-08T08:05:57.839Z,92356.00
2023-12-08T08:06:57.716Z,92350.00
2023-12-08T08:07:57.591Z,92364.00
2023-12-08T08:08:57.557Z,92368.00
2023-12-08T08:09:57.462Z,92359.00
2023-12-08T08:10:57.426Z,92366.00
2023-12-08T08:11:57.453Z,92354.00
2023-12-08T08:12:57.379Z,92350.00
2023-12-08T08:13:57.348Z,92347.00
2023-12-08T08:14:57.413Z,92360.00
2023-12-08T08:15:57.288Z,92359.00
2023-12-08T08:16:57.258Z,92364.00
2023-12-08T08:17:57.315Z,92369.00
2023-12-08T08:18:57.388Z,92363.00
2023-12-08T08:19:57.184Z,92376.00
2023-12-08T08:20:57.215Z,92358.00
2023-12-08T08:22:28.008Z,92376.00
2023-12-08T08:22:58.090Z,92355.00
2023-12-08T08:23:57.059Z,92369.00
2023-12-08T08:24:56.948Z,92373.00
2023-12-08T08:25:58.454Z,92371.00
2023-12-08T08:26:56.852Z,92366.00
2023-12-08T08:27:57.770Z,92371.00
2023-12-08T08:28:56.690Z,92379.00
2023-12-08T08:29:56.688Z,92373.00
2023-12-08T08:30:56.555Z,92372.00
2023-12-08T08:31:56.509Z,92376.00
2023-12-08T08:32:56.506Z,92371.00
2023-12-08T08:33:56.516Z,92380.00
2023-12-08T08:34:58.001Z,92379.00
2023-12-08T08:35:56.353Z,92392.00
2023-12-08T08:36:56.324Z,92391.00
2023-12-08T08:37:56.320Z,92380.00
2023-12-08T08:38:56.509Z,92381.00
2023-12-08T08:39:56.736Z,92385.00
2023-12-08T08:40:56.892Z,92383.00
2023-12-08T08:41:57.098Z,92385.00
2023-12-08T08:42:57.317Z,92381.00
2023-12-08T08:43:57.454Z,92384.00
2023-12-08T08:44:57.728Z,92381.00
2023-12-08T08:45:57.856Z,92379.00
2023-12-08T08:46:57.998Z,92393.00
2023-12-08T08:47:58.384Z,92390.00
2023-12-08T08:48:58.590Z,92383.00
2023-12-08T08:49:58.768Z,92381.00
2023-12-08T08:50:58.796Z,92378.00
2023-12-08T08:51:59.043Z,92374.00
2023-12-08T08:52:59.233Z,92375.00
2023-12-08T08:53:59.455Z,92373.00
2023-12-08T08:54:59.636Z,92366.00
2023-12-08T08:55:59.775Z,92362.00
2023-12-08T08:56:59.985Z,92356.00
2023-12-08T08:58:00.225Z,92358.00
2023-12-08T08:59:00.326Z,92364.00
2023-12-08T09:00:01.342Z,92372.00
2023-12-08T09:01:00.599Z,92376.00
2023-12-08T09:02:00.558Z,92394.00
2023-12-08T09:03:00.662Z,92390.00
2023-12-08T09:04:00.652Z,92391.00
2023-12-08T09:05:00.749Z,92391.00
2023-12-08T09:06:00.816Z,92394.00
2023-12-08T09:07:00.913Z,92383.00
2023-12-08T09:08:01.046Z,92373.00
2023-12-08T09:09:01.247Z,92379.00
2023-12-08T09:10:01.391Z,92385.00
2023-12-08T09:11:01.666Z,92380.00
2023-12-08T09:12:01.867Z,92363.00
2023-12-08T09:13:02.046Z,92364.00
2023-12-08T09:14:02.238Z,92390.00
2023-12-08T09:15:02.521Z,92384.00
2023-12-08T09:16:02.631Z,92373.00
2023-12-08T09:17:02.890Z,92379.00
2023-12-08T09:18:03.193Z,92377.00
2023-12-08T09:19:03.423Z,92358.00
2023-12-08T09:20:03.454Z,92365.00
2023-12-08T09:21:03.742Z,92362.00
2023-12-08T09:22:03.871Z,92375.00
2023-12-08T09:23:04.068Z,92378.00
2023-12-08T09:24:04.363Z,92369.00
2023-12-08T09:25:04.512Z,92384.00
2023-12-08T09:26:04.800Z,92377.00
2023-12-08T09:27:05.072Z,92370.00
2023-12-08T09:28:05.159Z,92372.00
2023-12-08T09:29:05.430Z,92375.00
2023-12-08T09:30:05.683Z,92366.00
2023-12-08T09:31:05.860Z,92372.00
2023-12-08T09:32:06.062Z,92369.00
2023-12-08T09:33:06.624Z,92375.00
2023-12-08T09:34:06.351Z,92371.00
2023-12-08T09:35:06.267Z,92374.00
2023-12-08T09:36:06.317Z,92372.00
2023-12-08T09:37:26.345Z,92373.00
2023-12-08T09:38:08.480Z,92368.00
2023-12-08T09:39:06.121Z,92360.00
2023-12-08T09:40:05.974Z,92370.00
2023-12-08T09:41:05.976Z,92361.00
2023-12-08T09:42:05.833Z,92377.00
2023-12-08T09:43:05.773Z,92375.00
2023-12-08T09:44:05.715Z,92370.00
2023-12-08T09:45:05.716Z,92372.00
2023-12-08T09:46:05.608Z,92366.00
2023-12-08T09:47:05.543Z,92371.00
2023-12-08T09:48:05.574Z,92375.00
2023-12-08T09:49:05.557Z,92376.00
2023-12-08T09:50:05.343Z,92383.00
2023-12-08T09:51:06.061Z,92385.00
2023-12-08T09:52:05.225Z,92378.00
2023-12-08T09:53:05.143Z,92385.00
2023-12-08T09:54:05.143Z,92378.00
2023-12-08T09:55:05.015Z,92370.00
2023-12-08T09:56:04.973Z,92358.00
2023-12-08T09:57:04.943Z,92368.00
2023-12-08T09:58:04.869Z,92361.00
2023-12-08T09:59:05.031Z,92370.00
2023-12-08T10:00:05.000Z,92374.00
2023-12-08T10:01:04.971Z,92384.00
2023-12-08T10:02:04.905Z,92370.00
2023-12-08T10:03:04.847Z,92373.00
2023-12-08T10:04:04.788Z,92373.00
2023-12-08T10:05:04.746Z,92376.00
2023-12-08T10:06:04.763Z,92361.00
2023-12-08T10:07:04.665Z,92361.00
2023-12-08T10:08:04.638Z,92391.00
2023-12-08T10:09:04.679Z,92389.00
2023-12-08T10:10:04.709Z,92392.00
2023-12-08T10:11:04.642Z,92380.00
2023-12-08T10:12:04.660Z,92380.00
2023-12-08T10:13:04.685Z,92384.00
2023-12-08T10:14:04.651Z,92381.00
2023-12-08T10:15:05.028Z,92384.00
2023-12-08T10:16:05.121Z,92368.00
2023-12-08T10:17:05.367Z,92368.00
2023-12-08T10:18:05.722Z,92372.00
2023-12-08T10:19:05.952Z,92359.00
2023-12-08T10:20:06.153Z,92355.00
2023-12-08T10:21:06.336Z,92350.00
2023-12-08T10:22:06.584Z,92373.00
2023-12-08T10:23:06.829Z,92354.00
2023-12-08T10:24:07.086Z,92352.00
2023-12-08T10:25:07.292Z,92361.00
2023-12-08T10:26:07.484Z,92355.00
2023-12-08T10:27:07.836Z,92330.00
2023-12-08T10:28:08.048Z,92356.00
2023-12-08T10:29:08.253Z,92357.00
2023-12-08T10:30:08.578Z,92359.00
2023-12-08T10:31:08.805Z,92326.00
2023-12-08T10:32:09.036Z,92326.00
2023-12-08T10:33:09.424Z,92326.00
2023-12-08T10:34:09.606Z,92343.00
2023-12-08T10:35:09.760Z,92344.00
2023-12-08T10:36:10.028Z,92354.00
2023-12-08T10:37:10.246Z,92332.00
2023-12-08T10:38:11.226Z,92334.00
2023-12-08T10:39:10.530Z,92342.00
2023-12-08T10:40:10.497Z,92330.00
2023-12-08T10:41:10.507Z,92339.00
2023-12-08T10:42:10.583Z,92343.00
2023-12-08T10:43:10.716Z,92334.00
2023-12-08T10:44:10.969Z,92334.00
2023-12-08T10:45:11.281Z,92341.00
2023-12-08T10:46:11.499Z,92352.00
2023-12-08T10:47:11.700Z,92342.00
2023-12-08T10:48:11.971Z,92329.00
2023-12-08T10:49:12.231Z,92336.00
2023-12-08T10:50:12.390Z,92335.00
2023-12-08T10:51:12.429Z,92334.00
2023-12-08T10:52:12.385Z,92337.00
2023-12-08T10:53:12.404Z,92328.00
2023-12-08T10:54:12.381Z,92330.00
2023-12-08T10:55:12.570Z,92333.00
2023-12-08T10:56:12.790Z,92336.00
2023-12-08T10:57:12.791Z,92336.00
2023-12-08T10:58:12.756Z,92331.00
2023-12-08T10:59:12.766Z,92343.00
2023-12-08T11:00:12.817Z,92335.00
2023-12-08T11:01:12.860Z,92340.00
2023-12-08T11:02:13.100Z,92340.00
2023-12-08T11:03:13.401Z,92332.00
2023-12-08T11:04:13.664Z,92336.00
2023-12-08T11:05:13.908Z,92339.00
2023-12-08T11:06:14.071Z,92329.00
2023-12-08T11:07:14.250Z,92327.00
2023-12-08T11:08:14.923Z,92335.00
2023-12-08T11:09:14.459Z,92331.00
2023-12-08T11:10:14.412Z,92339.00
2023-12-08T11:11:14.437Z,92342.00
2023-12-08T11:12:14.566Z,92338.00
2023-12-08T11:13:14.487Z,92338.00
2023-12-08T11:14:14.783Z,92336.00
2023-12-08T11:15:14.890Z,92333.00
2023-12-08T11:16:15.117Z,92338.00
2023-12-08T11:17:15.274Z,92335.00
2023-12-08T11:18:15.753Z,92336.00
2023-12-08T11:19:15.883Z,92333.00
2023-12-08T11:20:15.952Z,92336.00
2023-12-08T11:21:16.278Z,92333.00
2023-12-08T11:22:16.410Z,92336.00
2023-12-08T11:23:16.598Z,92343.00
2023-12-08T11:24:17.042Z,92344.00
2023-12-08T11:25:16.953Z,92335.00
2023-12-08T11:26:16.847Z,92340.00
2023-12-08T11:27:16.966Z,92329.00
2023-12-08T11:28:16.775Z,92323.00
2023-12-08T11:29:16.783Z,92333.00
2023-12-08T11:30:16.740Z,92329.00
2023-12-08T11:31:16.671Z,92330.00
2023-12-08T11:32:16.686Z,92319.00
2023-12-08T11:33:16.755Z,92320.00
2023-12-08T11:34:16.664Z,92332.00
2023-12-08T11:35:16.583Z,92337.00
2023-12-08T11:36:16.600Z,92330.00
2023-12-08T11:37:16.524Z,92326.00
2023-12-08T11:38:16.473Z,92329.00
2023-12-08T11:39:16.481Z,92335.00
2023-12-08T11:40:16.478Z,92338.00
2023-12-08T11:41:16.588Z,92340.00
2023-12-08T11:42:16.454Z,92352.00
2023-12-08T11:43:16.470Z,92327.00
2023-12-08T11:44:16.469Z,92337.00
2023-12-08T11:45:16.459Z,92336.00
2023-12-08T11:46:16.488Z,92346.00